createdAt,value
2023-02-20T00:00:51.262Z,8.23
2023-02-20T00:03:18.918Z,8.30
2023-02-20T00:05:46.441Z,7.07
2023-02-20T00:08:14.167Z,9.60
2023-02-20T00:10:41.659Z,9.37
2023-02-20T00:13:09.160Z,8.77
2023-02-20T00:15:38.007Z,10.30
2023-02-20T00:18:06.918Z,8.80
2023-02-20T00:23:37.381Z,9.50
2023-02-20T00:26:05.139Z,9.53
2023-02-20T00:28:32.555Z,9.17
2023-02-20T00:31:02.131Z,9.63
2023-02-20T00:33:31.178Z,8.47
2023-02-20T00:35:58.616Z,10.57
2023-02-20T00:38:26.339Z,10.30
2023-02-20T00:41:08.085Z,9.03
2023-02-20T00:43:37.241Z,9.17
2023-02-20T00:49:04.192Z,9.83
2023-02-20T00:51:46.824Z,11.33
2023-02-20T00:54:14.453Z,11.17
2023-02-20T00:56:42.060Z,13.13
2023-02-20T00:59:09.755Z,13.60
2023-02-20T01:01:37.337Z,12.67
2023-02-20T01:04:06.986Z,12.53
2023-02-20T01:06:35.400Z,13.50
2023-02-20T01:09:03.007Z,13.07
2023-02-20T01:14:29.602Z,11.73
2023-02-20T01:16:57.106Z,12.13
2023-02-20T01:19:26.332Z,12.70
2023-02-20T01:21:53.834Z,11.50
2023-02-20T01:24:21.740Z,10.57
2023-02-20T01:26:50.257Z,11.47
2023-02-20T01:29:18.609Z,11.10
2023-02-20T01:31:50.299Z,10.57
2023-02-20T01:34:18.769Z,10.27
2023-02-20T01:36:48.970Z,10.27
2023-02-20T01:39:19.271Z,10.17
2023-02-20T01:41:48.215Z,10.33
2023-02-20T01:47:22.390Z,10.93
2023-02-20T01:49:51.925Z,11.33
2023-02-20T01:52:25.624Z,11.13
2023-02-20T01:54:56.174Z,11.20
2023-02-20T02:00:16.750Z,10.50
2023-02-20T02:02:47.442Z,10.87
2023-02-20T02:05:15.276Z,11.90
2023-02-20T02:07:44.893Z,12.23
2023-02-20T02:10:14.936Z,11.60
2023-02-20T02:12:43.560Z,12.60
2023-02-20T02:15:15.088Z,12.87
2023-02-20T02:21:26.199Z,12.37
2023-02-20T02:27:25.287Z,11.57
2023-02-20T02:32:58.463Z,12.00
2023-02-20T02:35:48.556Z,12.73
2023-02-20T02:38:22.278Z,12.13
2023-02-20T02:40:54.021Z,11.43
2023-02-20T02:43:28.811Z,11.50
2023-02-20T02:45:57.710Z,11.07
2023-02-20T02:48:29.515Z,11.07
2023-02-20T02:54:08.704Z,11.87
2023-02-20T02:56:37.062Z,10.63
2023-02-20T02:59:05.231Z,11.40
2023-02-20T03:01:35.808Z,10.60
2023-02-20T03:04:05.281Z,10.13
2023-02-20T03:06:36.020Z,11.03
2023-02-20T03:09:08.073Z,10.80
2023-02-20T03:14:58.907Z,10.70
2023-02-20T03:20:29.566Z,9.90
2023-02-20T03:22:59.956Z,9.70
2023-02-20T03:25:35.121Z,9.93
2023-02-20T03:28:04.489Z,9.83
2023-02-20T03:30:36.280Z,9.93
2023-02-20T03:33:27.154Z,10.23
2023-02-20T03:36:13.060Z,10.00
2023-02-20T03:41:52.067Z,11.57
2023-02-20T03:44:21.745Z,9.33
2023-02-20T03:46:50.174Z,10.20
2023-02-20T03:52:20.631Z,10.40
2023-02-20T03:54:48.942Z,10.17
2023-02-20T04:00:02.136Z,10.57
2023-02-20T04:05:37.307Z,11.03
2023-02-20T04:11:09.312Z,9.00
2023-02-20T04:13:37.904Z,9.73
2023-02-20T04:16:07.489Z,11.10
2023-02-20T04:18:35.754Z,10.27
2023-02-20T04:21:07.265Z,10.67
2023-02-20T04:23:41.755Z,10.67
2023-02-20T04:26:33.503Z,9.00
2023-02-20T04:29:01.647Z,10.40
2023-02-20T04:31:30.715Z,10.80
2023-02-20T04:33:58.370Z,10.33
2023-02-20T04:36:43.022Z,10.07
2023-02-20T04:39:11.065Z,10.57
2023-02-20T04:44:36.596Z,10.17
2023-02-20T04:47:09.529Z,10.73
2023-02-20T04:49:37.961Z,9.97
2023-02-20T04:52:07.623Z,11.57
2023-02-20T04:54:36.308Z,10.60
2023-02-20T04:57:05.199Z,10.87
2023-02-20T05:02:33.696Z,10.73
2023-02-20T05:05:01.203Z,8.70
2023-02-20T05:10:18.232Z,9.63
2023-02-20T05:12:45.950Z,8.37
2023-02-20T05:15:14.106Z,10.60
2023-02-20T05:17:43.067Z,10.47
2023-02-20T05:20:11.826Z,9.87
2023-02-20T05:22:38.344Z,9.77
2023-02-20T05:25:06.728Z,9.73
2023-02-20T05:27:34.473Z,10.00
2023-02-20T05:30:02.294Z,10.35
2023-02-20T05:32:31.370Z,8.50
2023-02-20T05:37:54.791Z,8.83
2023-02-20T05:40:22.380Z,8.10
2023-02-20T05:42:49.897Z,9.40
2023-02-20T05:45:17.478Z,7.80
2023-02-20T05:47:45.055Z,8.70
2023-02-20T05:53:02.675Z,8.27
2023-02-20T05:55:30.807Z,8.87
2023-02-20T05:57:58.279Z,7.77
2023-02-20T06:03:28.337Z,7.77
2023-02-20T06:05:56.311Z,8.53
2023-02-20T06:08:25.123Z,9.07
2023-02-20T06:10:52.593Z,8.53
2023-02-20T06:13:20.032Z,8.97
2023-02-20T06:15:47.714Z,8.33
2023-02-20T06:18:15.156Z,8.53
2023-02-20T06:20:42.579Z,8.47
2023-02-20T06:23:10.039Z,9.30
2023-02-20T06:25:38.766Z,10.03
2023-02-20T06:28:06.321Z,10.13
2023-02-20T06:30:33.849Z,8.53
2023-02-20T06:33:01.482Z,9.90
2023-02-20T06:35:29.169Z,9.63
2023-02-20T06:40:46.743Z,9.27
2023-02-20T06:43:14.198Z,8.60
2023-02-20T06:45:41.690Z,8.73
2023-02-20T06:48:09.291Z,9.53
2023-02-20T06:50:36.796Z,10.43
2023-02-20T06:53:04.439Z,10.07
2023-02-20T06:55:32.691Z,9.27
2023-02-20T06:58:37.285Z,10.67
2023-02-20T07:01:06.139Z,11.20
2023-02-20T07:06:37.049Z,12.77
2023-02-20T07:09:04.809Z,13.47
2023-02-20T07:11:35.477Z,13.90
2023-02-20T07:14:03.011Z,14.97
2023-02-20T07:19:34.830Z,17.53
2023-02-20T07:22:03.133Z,17.70
2023-02-20T07:24:30.648Z,15.60
2023-02-20T07:26:58.058Z,16.97
2023-02-20T07:32:24.681Z,20.47
2023-02-20T07:35:03.707Z,21.93
2023-02-20T07:37:33.536Z,22.93
2023-02-20T07:40:00.962Z,21.27
2023-02-20T07:42:28.355Z,21.47
2023-02-20T07:45:14.700Z,17.77
2023-02-20T07:47:42.103Z,20.87
2023-02-20T07:50:15.127Z,21.60
2023-02-20T07:52:42.594Z,18.87
2023-02-20T07:55:11.094Z,22.70
2023-02-20T07:57:39.253Z,19.03
2023-02-20T08:03:03.522Z,19.13
2023-02-20T08:05:40.136Z,23.30
2023-02-20T08:08:14.751Z,21.43
2023-02-20T08:10:42.242Z,21.43
2023-02-20T08:13:09.771Z,21.57
2023-02-20T08:18:44.009Z,23.53
2023-02-20T08:24:18.192Z,24.97
2023-02-20T08:26:46.113Z,22.33
2023-02-20T08:29:13.757Z,21.50
2023-02-20T08:31:41.408Z,20.93
2023-02-20T08:37:09.674Z,21.93
2023-02-20T08:39:38.518Z,23.07
2023-02-20T08:44:46.933Z,23.97
2023-02-20T08:47:14.477Z,23.63
2023-02-20T08:49:41.889Z,22.20
2023-02-20T08:52:09.302Z,21.37
2023-02-20T08:54:38.286Z,18.80
2023-02-20T08:57:05.788Z,21.63
2023-02-20T09:02:33.368Z,21.93
2023-02-20T09:05:00.832Z,21.13
2023-02-20T09:07:28.386Z,20.60
2023-02-20T09:09:57.193Z,20.53
2023-02-20T09:12:24.698Z,20.13
2023-02-20T09:17:54.645Z,23.90
2023-02-20T09:20:23.195Z,22.47
2023-02-20T09:22:51.699Z,21.30
2023-02-20T09:25:20.591Z,23.57
2023-02-20T09:27:48.013Z,23.67
2023-02-20T09:30:19.545Z,23.23
2023-02-20T09:32:47.441Z,24.73
2023-02-20T09:35:17.658Z,22.10
2023-02-20T09:37:45.357Z,23.53
2023-02-20T09:40:13.046Z,23.27
2023-02-20T09:42:51.842Z,21.70
2023-02-20T09:45:21.119Z,22.70
2023-02-20T09:50:50.911Z,20.70
2023-02-20T09:53:23.198Z,22.33
2023-02-20T09:55:51.607Z,22.63
2023-02-20T09:58:24.143Z,23.20
2023-02-20T10:00:52.276Z,20.47
2023-02-20T10:03:24.057Z,20.73
2023-02-20T10:08:50.695Z,22.13
2023-02-20T10:11:40.363Z,20.23
2023-02-20T10:14:29.233Z,20.27
2023-02-20T10:17:01.160Z,20.77
2023-02-20T10:19:35.312Z,20.43
2023-02-20T10:22:05.739Z,20.33
2023-02-20T10:27:49.234Z,21.07
2023-02-20T10:30:24.145Z,21.60
2023-02-20T10:32:54.398Z,22.03
2023-02-20T10:35:25.158Z,21.93
2023-02-20T10:37:55.488Z,20.63
2023-02-20T10:40:25.557Z,20.93
2023-02-20T10:42:56.518Z,22.83
2023-02-20T10:45:31.234Z,21.00
2023-02-20T10:48:03.323Z,20.47
2023-02-20T10:50:36.156Z,21.40
2023-02-20T10:55:57.636Z,21.23
2023-02-20T10:58:32.795Z,18.00
2023-02-20T11:01:03.212Z,20.93
2023-02-20T11:03:37.851Z,19.90
2023-02-20T11:08:53.393Z,19.13
2023-02-20T11:11:24.758Z,18.13
2023-02-20T11:13:52.293Z,20.97
2023-02-20T11:16:25.290Z,19.60
2023-02-20T11:19:03.801Z,20.17
2023-02-20T11:21:36.372Z,19.53
2023-02-20T11:27:11.681Z,20.03
2023-02-20T11:29:42.220Z,21.10
2023-02-20T11:32:26.068Z,21.53
2023-02-20T11:35:29.698Z,22.23
2023-02-20T11:38:20.483Z,21.83
2023-02-20T11:40:49.830Z,22.13
2023-02-20T11:46:09.789Z,22.63
2023-02-20T11:48:40.440Z,22.33
2023-02-20T11:51:34.682Z,22.53
2023-02-20T11:54:10.347Z,22.73
2023-02-20T11:56:37.889Z,22.90
2023-02-20T11:59:27.718Z,21.43
2023-02-20T12:04:35.359Z,22.70
2023-02-20T12:07:19.262Z,22.57
2023-02-20T12:12:45.116Z,22.00
2023-02-20T12:15:14.430Z,23.67
2023-02-20T12:17:52.836Z,23.37
2023-02-20T12:20:23.566Z,22.43
2023-02-20T12:23:00.221Z,23.47
2023-02-20T12:25:56.934Z,23.23
2023-02-20T12:28:31.070Z,23.67
2023-02-20T12:34:10.205Z,23.50
2023-02-20T12:36:41.003Z,22.07
2023-02-20T12:39:18.445Z,20.17
2023-02-20T12:41:51.402Z,23.30
2023-02-20T12:44:28.504Z,21.80
2023-02-20T12:47:00.931Z,18.80
2023-02-20T12:49:50.526Z,22.80
2023-02-20T12:52:34.447Z,22.50
2023-02-20T12:55:08.321Z,18.13
2023-02-20T12:58:07.347Z,21.90
2023-02-20T13:00:39.884Z,20.13
2023-02-20T13:03:11.132Z,20.87
2023-02-20T13:05:39.370Z,18.17
2023-02-20T13:08:11.038Z,20.43
2023-02-20T13:10:48.052Z,19.23
2023-02-20T13:13:16.698Z,16.10
2023-02-20T13:18:49.463Z,20.23
2023-02-20T13:21:21.125Z,17.40
2023-02-20T13:23:52.944Z,20.40
2023-02-20T13:26:49.499Z,19.23
2023-02-20T13:29:18.167Z,19.57
2023-02-20T13:31:48.358Z,16.70
2023-02-20T13:37:56.158Z,19.40
2023-02-20T13:40:45.130Z,17.57
2023-02-20T13:43:30.479Z,20.00
2023-02-20T13:49:08.784Z,19.10
2023-02-20T13:51:37.971Z,19.77
2023-02-20T13:54:31.480Z,18.00
2023-02-20T13:57:13.501Z,18.47
2023-02-20T13:59:41.090Z,15.27
2023-02-20T14:02:17.382Z,16.33
2023-02-20T14:05:08.789Z,16.27
2023-02-20T14:07:39.230Z,14.03
2023-02-20T14:10:10.012Z,15.10
2023-02-20T14:12:40.162Z,15.37
2023-02-20T14:15:09.201Z,13.73
2023-02-20T14:17:39.453Z,14.17
2023-02-20T14:20:14.823Z,15.10
2023-02-20T14:22:42.669Z,13.07
2023-02-20T14:25:27.191Z,13.00
2023-02-20T14:28:08.154Z,12.13
2023-02-20T14:30:35.639Z,13.17
2023-02-20T14:33:04.073Z,13.87
2023-02-20T14:38:59.832Z,13.20
2023-02-20T14:41:27.368Z,12.03
2023-02-20T14:43:57.422Z,13.27
2023-02-20T14:49:15.174Z,11.10
2023-02-20T14:51:42.974Z,13.50
2023-02-20T14:57:14.431Z,13.40
2023-02-20T14:59:43.830Z,13.03
2023-02-20T15:02:31.280Z,13.03
2023-02-20T15:05:03.847Z,12.17
2023-02-20T15:07:31.675Z,12.03
2023-02-20T15:10:00.474Z,13.17
2023-02-20T15:12:30.213Z,12.97
2023-02-20T15:18:09.542Z,12.87
2023-02-20T15:20:38.556Z,14.03
2023-02-20T15:23:15.690Z,14.33
2023-02-20T15:28:46.075Z,14.70
2023-02-20T15:31:23.226Z,14.53
2023-02-20T15:33:55.745Z,14.43
2023-02-20T15:36:25.219Z,15.73
2023-02-20T15:44:27.392Z,15.23
2023-02-20T15:49:58.515Z,15.30
2023-02-20T15:52:29.071Z,15.90
2023-02-20T15:54:57.050Z,14.27
2023-02-20T15:57:24.813Z,15.80
2023-02-20T15:59:54.435Z,16.17
2023-02-20T16:02:24.220Z,15.37
2023-02-20T16:04:52.685Z,15.83
2023-02-20T16:07:22.258Z,15.30
2023-02-20T16:09:49.874Z,15.23
2023-02-20T16:12:18.945Z,14.77
2023-02-20T16:17:36.184Z,14.93
2023-02-20T16:20:14.854Z,12.53
2023-02-20T16:22:43.631Z,15.67
2023-02-20T16:28:08.300Z,13.93
2023-02-20T16:30:38.672Z,15.60
2023-02-20T16:33:13.235Z,14.93
2023-02-20T16:35:40.816Z,13.30
2023-02-20T16:38:09.575Z,13.97
2023-02-20T16:40:37.483Z,13.70
2023-02-20T16:43:05.460Z,14.93
2023-02-20T16:45:33.560Z,14.53
2023-02-20T16:48:01.036Z,13.53
2023-02-20T16:50:30.058Z,13.87
2023-02-20T16:52:58.424Z,14.13
2023-02-20T16:55:28.889Z,13.73
2023-02-20T16:57:56.527Z,15.73
2023-02-20T17:00:26.238Z,14.47
2023-02-20T17:02:54.595Z,14.43
2023-02-20T17:05:23.661Z,14.60
2023-02-20T17:10:41.735Z,10.73
2023-02-20T17:13:09.158Z,14.17
2023-02-20T17:15:37.763Z,13.67
2023-02-20T17:18:05.750Z,14.80
2023-02-20T17:20:33.226Z,15.67
2023-02-20T17:23:05.460Z,16.50
2023-02-20T17:25:34.434Z,16.73
2023-02-20T17:28:04.024Z,15.33
2023-02-20T17:30:31.581Z,17.57
2023-02-20T17:32:59.142Z,16.80
2023-02-20T17:35:26.583Z,15.30
2023-02-20T17:37:53.992Z,17.70
2023-02-20T17:40:21.407Z,18.07
2023-02-20T17:42:48.855Z,16.70
2023-02-20T17:45:17.896Z,17.70
2023-02-20T17:50:49.375Z,15.90
2023-02-20T17:56:19.386Z,16.20
2023-02-20T17:58:47.238Z,16.53
2023-02-20T18:01:16.095Z,15.57
2023-02-20T18:03:43.717Z,15.77
2023-02-20T18:06:11.563Z,15.30
2023-02-20T18:08:39.099Z,14.67
2023-02-20T18:11:06.545Z,16.10
2023-02-20T18:13:33.943Z,18.33
2023-02-20T18:16:01.865Z,17.57
2023-02-20T18:18:30.712Z,17.20
2023-02-20T18:21:24.182Z,17.83
2023-02-20T18:23:51.949Z,16.80
2023-02-20T18:26:19.526Z,17.73
2023-02-20T18:28:47.435Z,17.90
2023-02-20T18:33:56.972Z,17.03
2023-02-20T18:39:24.432Z,20.93
2023-02-20T18:41:52.454Z,20.60
2023-02-20T18:44:20.294Z,21.70
2023-02-20T18:46:47.763Z,20.40
2023-02-20T18:52:05.760Z,21.70
2023-02-20T18:54:33.514Z,22.70
2023-02-20T18:57:01.631Z,20.30
2023-02-20T18:59:30.687Z,22.27
2023-02-20T19:01:58.899Z,22.77
2023-02-20T19:06:57.139Z,23.87
2023-02-20T19:09:26.127Z,24.87
2023-02-20T19:11:55.296Z,24.97
2023-02-20T19:14:23.605Z,22.77
2023-02-20T19:16:51.856Z,25.73
2023-02-20T19:19:23.876Z,21.67
2023-02-20T19:24:41.397Z,26.73
2023-02-20T19:27:10.776Z,26.73
2023-02-20T19:29:40.615Z,28.23
2023-02-20T19:32:09.751Z,23.93
2023-02-20T19:37:26.054Z,26.30
2023-02-20T19:39:54.786Z,28.20
2023-02-20T19:42:22.287Z,27.30
2023-02-20T19:44:49.992Z,27.97
2023-02-20T19:50:13.302Z,27.37
2023-02-20T19:52:42.026Z,29.13
2023-02-20T19:55:11.531Z,27.00
2023-02-20T19:57:38.969Z,25.83
2023-02-20T20:03:09.096Z,27.43
2023-02-20T20:05:36.604Z,28.90
2023-02-20T20:08:05.305Z,28.30
2023-02-20T20:13:38.388Z,26.87
2023-02-20T20:16:06.474Z,29.73
2023-02-20T20:18:33.919Z,29.20
2023-02-20T20:21:01.372Z,29.00
2023-02-20T20:23:29.245Z,23.93
2023-02-20T20:25:56.761Z,29.67
2023-02-20T20:28:28.055Z,29.50
2023-02-20T20:30:56.849Z,30.20
2023-02-20T20:36:22.179Z,30.17
2023-02-20T20:38:49.669Z,30.33
2023-02-20T20:41:17.123Z,30.70
2023-02-20T20:43:45.409Z,30.93
2023-02-20T20:46:14.796Z,28.40
2023-02-20T20:48:42.229Z,29.57
2023-02-20T20:51:12.603Z,29.03
2023-02-20T20:53:40.194Z,31.23
2023-02-20T20:59:04.505Z,29.93
2023-02-20T21:01:33.265Z,30.87
2023-02-20T21:06:59.078Z,30.03
2023-02-20T21:09:26.517Z,31.93
2023-02-20T21:11:54.247Z,31.67
2023-02-20T21:17:25.724Z,31.03
2023-02-20T21:19:53.174Z,32.40
2023-02-20T21:22:20.719Z,29.93
2023-02-20T21:24:48.165Z,31.20
2023-02-20T21:27:15.673Z,32.80
2023-02-20T21:29:43.096Z,30.93
2023-02-20T21:32:10.545Z,32.53
2023-02-20T21:37:36.424Z,29.13
2023-02-20T21:40:04.041Z,28.00
2023-02-20T21:42:49.091Z,30.07
2023-02-20T21:45:16.583Z,29.50
2023-02-20T21:47:44.006Z,29.40
2023-02-20T21:50:11.491Z,32.00
2023-02-20T21:52:40.443Z,31.63
2023-02-20T21:55:12.500Z,32.07
2023-02-20T22:00:27.220Z,30.57
2023-02-20T22:02:53.822Z,32.63
2023-02-20T22:05:20.575Z,32.23
2023-02-20T22:08:07.141Z,33.30
2023-02-20T22:10:52.358Z,33.03
2023-02-20T22:13:37.247Z,32.93
2023-02-20T22:16:24.506Z,32.37
2023-02-20T22:19:09.449Z,33.43
2023-02-20T22:21:54.546Z,32.77
2023-02-20T22:24:40.779Z,32.90
2023-02-20T22:27:27.634Z,32.03
2023-02-20T22:30:12.984Z,23.20
2023-02-20T22:32:58.211Z,32.70
2023-02-20T22:35:43.417Z,29.73
2023-02-20T22:38:28.514Z,32.33
2023-02-20T22:44:03.288Z,29.03
2023-02-20T22:46:48.524Z,31.17
2023-02-20T22:49:33.831Z,33.10
2023-02-20T22:52:18.632Z,36.23
2023-02-20T22:55:05.814Z,34.67
2023-02-20T22:57:51.485Z,34.17
2023-02-20T23:00:38.633Z,35.47
2023-02-20T23:03:24.071Z,34.80
2023-02-20T23:06:18.429Z,37.53
2023-02-20T23:09:04.162Z,36.83
2023-02-20T23:11:51.386Z,37.70
2023-02-20T23:14:36.629Z,33.83
2023-02-20T23:17:34.916Z,33.87
2023-02-20T23:20:21.262Z,35.33
2023-02-20T23:23:06.570Z,29.23
2023-02-20T23:25:54.140Z,30.87
2023-02-20T23:28:39.253Z,29.93
2023-02-20T23:31:24.873Z,25.60
2023-02-20T23:34:11.187Z,30.30
2023-02-20T23:36:56.199Z,28.77
2023-02-20T23:39:39.760Z,27.53
2023-02-20T23:42:24.738Z,29.70
2023-02-20T23:45:10.447Z,28.10
2023-02-20T23:50:45.064Z,29.50
2023-02-20T23:53:29.996Z,29.00
2023-02-20T23:56:15.128Z,25.00
2023-02-20T23:59:00.101Z,26.50
